Time;durP1;ratioP1;P1;durP2;ratioP2;P2;SDS_P1;SDS_P2;PMS_P1;PMS_P2;Temp;Humidity;BMP_temperature;BMP_pressure;BME280_temperature;BME280_humidity;BME280_pressure;Samples;Min_cycle;Max_cycle;Signal;HPM_P1;HPM_P2
2022/05/28 00:01:56;;;;;;;15.43;9.20;;;15.70;86.30;;;;;;5039873;28;20979;-75
2022/05/28 00:04:23;;;;;;;16.40;8.20;;;15.50;85.90;;;;;;5043646;28;21331;-74
2022/05/28 00:06:49;;;;;;;14.63;9.20;;;15.40;86.10;;;;;;5050635;28;20484;-75
2022/05/28 00:09:16;;;;;;;18.90;9.10;;;15.30;87.80;;;;;;5036936;28;20510;-74
2022/05/28 00:11:44;;;;;;;16.60;5.80;;;15.30;87.50;;;;;;5035721;28;20492;-74
2022/05/28 00:14:12;;;;;;;15.80;9.60;;;15.30;87.10;;;;;;5042112;28;20484;-73
2022/05/28 00:16:41;;;;;;;11.40;8.57;;;;;;;;;;5041952;28;20582;-74
2022/05/28 00:19:09;;;;;;;17.50;10.83;;;15.10;87.80;;;;;;5024709;28;20501;-72
2022/05/28 00:21:37;;;;;;;11.20;6.60;;;15.00;88.10;;;;;;5050249;28;20561;-73
2022/05/28 00:24:04;;;;;;;15.93;7.40;;;14.80;88.40;;;;;;5039267;28;20475;-71
2022/05/28 00:26:31;;;;;;;9.00;6.77;;;14.80;88.50;;;;;;5037744;28;20858;-72
2022/05/28 00:28:57;;;;;;;9.37;6.50;;;14.70;88.60;;;;;;5041893;28;20849;-70
2022/05/28 00:31:24;;;;;;;8.87;6.23;;;14.60;88.20;;;;;;5041394;28;20478;-75
2022/05/28 00:33:51;;;;;;;13.20;8.00;;;14.50;89.10;;;;;;5045227;28;20475;-74
2022/05/28 00:36:19;;;;;;;11.53;8.17;;;14.40;89.70;;;;;;5037218;28;20498;-73
2022/05/28 00:38:46;;;;;;;26.03;8.17;;;14.30;89.10;;;;;;5044108;28;20490;-74
2022/05/28 00:41:14;;;;;;;15.27;9.70;;;14.30;89.20;;;;;;5044022;28;20484;-73
2022/05/28 00:43:44;;;;;;;13.30;8.93;;;14.20;88.60;;;;;;5046005;28;20481;-74
2022/05/28 00:46:14;;;;;;;15.60;9.50;;;12.90;87.40;;;;;;5037505;28;20801;-73
2022/05/28 00:48:46;;;;;;;9.67;7.50;;;14.10;88.80;;;;;;5043600;28;20484;-75
2022/05/28 00:51:16;;;;;;;16.00;10.73;;;14.00;89.20;;;;;;5041369;28;20482;-75
2022/05/28 00:53:45;;;;;;;17.03;7.47;;;13.90;89.80;;;;;;5043967;28;21009;-74
2022/05/28 00:56:12;;;;;;;14.60;10.30;;;13.80;89.30;;;;;;5036410;28;20891;-73
2022/05/28 00:58:39;;;;;;;14.40;8.43;;;13.80;89.50;;;;;;5041909;28;20563;-73
2022/05/28 01:01:09;;;;;;;17.07;10.50;;;13.80;89.30;;;;;;5045871;28;20462;-74
2022/05/28 01:03:41;;;;;;;10.40;6.60;;;13.80;89.30;;;;;;5046495;28;20505;-73
2022/05/28 01:06:16;;;;;;;19.17;10.87;;;13.70;88.60;;;;;;5041614;28;20573;-72
2022/05/28 01:08:51;;;;;;;11.20;7.83;;;13.70;88.60;;;;;;5027917;28;20492;-72
2022/05/28 01:11:25;;;;;;;15.50;7.80;;;13.70;87.80;;;;;;5045374;28;20487;-73
2022/05/28 01:13:57;;;;;;;16.10;7.70;;;13.60;87.50;;;;;;5035457;28;20492;-75
2022/05/28 01:16:31;;;;;;;12.90;7.53;;;14.10;88.70;;;;;;5042599;28;20483;-72
2022/05/28 01:19:02;;;;;;;13.90;9.27;;;13.30;88.30;;;;;;5040962;28;20486;-73
2022/05/28 01:21:40;;;;;;;11.33;6.60;;;13.20;88.50;;;;;;5042639;28;20489;-73
2022/05/28 01:24:17;;;;;;;26.83;11.90;;;13.10;88.80;;;;;;5023905;28;20984;-72
2022/05/28 01:26:52;;;;;;;12.87;8.10;;;13.00;88.90;;;;;;5043229;28;20484;-72
2022/05/28 01:29:21;;;;;;;20.40;8.13;;;12.90;89.70;;;;;;5037952;28;20493;-74
2022/05/28 01:31:48;;;;;;;12.67;8.07;;;12.80;90.00;;;;;;5038435;28;20473;-73
2022/05/28 01:34:18;;;;;;;22.03;12.43;;;12.70;89.60;;;;;;5034839;28;20484;-74
2022/05/28 01:36:46;;;;;;;22.40;7.77;;;12.40;89.20;;;;;;5038238;28;20739;-73
2022/05/28 01:39:14;;;;;;;22.73;12.97;;;;;;;;;;5035855;28;20498;-72
2022/05/28 01:41:42;;;;;;;13.60;7.90;;;12.10;90.00;;;;;;5030645;28;20474;-74
2022/05/28 01:44:13;;;;;;;25.87;11.10;;;12.00;89.80;;;;;;5046339;28;20476;-73
2022/05/28 01:46:41;;;;;;;14.60;8.70;;;12.00;90.60;;;;;;5036757;28;20470;-73
2022/05/28 01:49:12;;;;;;;17.03;10.43;;;11.90;89.80;;;;;;5041521;28;20467;-73
2022/05/28 01:51:42;;;;;;;11.00;6.20;;;11.90;90.00;;;;;;5030862;28;20928;-73
2022/05/28 01:54:11;;;;;;;18.40;10.27;;;11.80;88.90;;;;;;5054074;28;20921;-74
2022/05/28 01:56:43;;;;;;;18.23;5.47;;;11.60;88.40;;;;;;5048231;28;20489;-73
2022/05/28 01:59:12;;;;;;;15.43;9.20;;;11.60;89.60;;;;;;5059788;28;20468;-73
2022/05/28 02:01:39;;;;;;;7.80;5.73;;;11.40;89.10;;;;;;5063480;28;20478;-73
2022/05/28 02:04:06;;;;;;;21.03;10.10;;;11.40;89.90;;;;;;5056388;28;21008;-73
2022/05/28 02:06:34;;;;;;;9.07;5.43;;;11.30;90.00;;;;;;5056512;28;20963;-73
2022/05/28 02:09:04;;;;;;;15.50;7.53;;;11.30;89.50;;;;;;5056984;28;20860;-73
2022/05/28 02:11:43;;;;;;;11.43;5.70;;;11.10;90.00;;;;;;5058777;28;20467;-73
2022/05/28 02:14:22;;;;;;;15.23;8.40;;;11.00;89.70;;;;;;5040511;28;20482;-73
2022/05/28 02:16:57;;;;;;;10.30;5.63;;;10.80;89.70;;;;;;5054226;28;20475;-72
2022/05/28 02:19:30;;;;;;;8.90;6.40;;;10.60;90.00;;;;;;5041523;28;20479;-72
2022/05/28 02:22:02;;;;;;;4.60;3.63;;;10.40;90.30;;;;;;5055483;28;20491;-72
2022/05/28 02:24:35;;;;;;;5.70;4.10;;;10.40;90.70;;;;;;5060717;28;20509;-72
2022/05/28 02:27:09;;;;;;;24.50;7.13;;;10.20;91.30;;;;;;5062099;28;20480;-73
2022/05/28 02:29:37;;;;;;;9.20;6.33;;;10.30;91.20;;;;;;5061564;28;20488;-73
2022/05/28 02:32:14;;;;;;;6.77;4.40;;;10.50;90.90;;;;;;5059749;28;20493;-73
2022/05/28 02:34:45;;;;;;;6.77;5.27;;;10.50;90.80;;;;;;5063839;28;20500;-72
2022/05/28 02:37:13;;;;;;;10.50;6.73;;;10.60;90.60;;;;;;5061459;28;20467;-71
2022/05/28 02:39:39;;;;;;;23.50;6.53;;;10.60;90.60;;;;;;5064363;28;20485;-74
2022/05/28 02:42:07;;;;;;;15.40;7.60;;;10.60;90.30;;;;;;5061429;28;20523;-72
2022/05/28 02:44:34;;;;;;;4.80;4.17;;;10.50;89.60;;;;;;5062200;28;20624;-72
2022/05/28 02:47:03;;;;;;;16.83;6.00;;;10.20;89.40;;;;;;5060507;28;20487;-71
2022/05/28 02:49:30;;;;;;;7.27;5.43;;;10.10;89.90;;;;;;5063550;28;20489;-70
2022/05/28 02:51:56;;;;;;;7.40;5.00;;;10.00;90.00;;;;;;5062505;28;20496;-71
2022/05/28 02:54:23;;;;;;;13.00;3.70;;;10.00;90.00;;;;;;5063256;28;20489;-73
2022/05/28 02:56:50;;;;;;;11.80;4.97;;;10.00;90.00;;;;;;5059380;28;20491;-72
2022/05/28 02:59:16;;;;;;;9.07;6.33;;;10.10;90.00;;;;;;5061951;28;20991;-72
2022/05/28 03:01:43;;;;;;;11.20;5.10;;;10.10;89.70;;;;;;5059798;28;20478;-72
2022/05/28 03:04:11;;;;;;;12.20;6.50;;;10.10;89.50;;;;;;5062485;28;20851;-72
2022/05/28 03:06:38;;;;;;;15.40;6.23;;;10.10;89.30;;;;;;5055604;28;20475;-72
2022/05/28 03:09:06;;;;;;;16.67;8.40;;;10.10;89.70;;;;;;5062802;28;20829;-72
2022/05/28 03:11:34;;;;;;;6.70;4.50;;;10.00;89.30;;;;;;5061884;28;20484;-73
2022/05/28 03:14:01;;;;;;;8.60;5.50;;;10.00;89.00;;;;;;5060815;28;20482;-73
2022/05/28 03:16:28;;;;;;;23.87;6.33;;;10.00;88.60;;;;;;5059530;28;20490;-72
2022/05/28 03:18:54;;;;;;;6.83;4.07;;;9.90;89.40;;;;;;5062532;28;20491;-73
2022/05/28 03:21:23;;;;;;;5.03;3.43;;;9.80;89.00;;;;;;5062479;28;20484;-73
2022/05/28 03:23:50;;;;;;;18.77;4.67;;;9.60;89.50;;;;;;5062897;28;20489;-73
2022/05/28 03:26:19;;;;;;;6.63;5.60;;;9.40;89.50;;;;;;5060573;28;20486;-72
2022/05/28 03:28:46;;;;;;;8.27;4.20;;;9.40;89.80;;;;;;5061926;28;20897;-72
2022/05/28 03:31:14;;;;;;;16.87;5.20;;;9.30;90.00;;;;;;5058063;28;20482;-73
2022/05/28 03:33:41;;;;;;;9.10;6.50;;;9.30;90.10;;;;;;5061681;28;20473;-73
2022/05/28 03:36:08;;;;;;;9.23;5.73;;;9.30;90.20;;;;;;5059093;28;20482;-74
2022/05/28 03:38:37;;;;;;;11.70;6.10;;;9.30;90.00;;;;;;5061769;28;20482;-73
2022/05/28 03:41:04;;;;;;;15.20;7.70;;;9.30;90.00;;;;;;5060546;28;20470;-73
2022/05/28 03:43:31;;;;;;;6.20;3.90;;;9.10;89.50;;;;;;5055251;28;20861;-73
2022/05/28 03:45:58;;;;;;;5.40;4.53;;;9.10;90.00;;;;;;5059363;28;20482;-73
2022/05/28 03:48:26;;;;;;;7.30;4.77;;;9.10;90.40;;;;;;5060916;28;20478;-73
2022/05/28 03:50:52;;;;;;;9.53;4.80;;;9.10;90.50;;;;;;5060940;28;20493;-73
2022/05/28 03:53:20;;;;;;;8.40;4.70;;;9.10;90.60;;;;;;5057401;28;20522;-73
2022/05/28 03:55:48;;;;;;;9.80;6.43;;;9.10;90.30;;;;;;5042986;28;20658;-72
2022/05/28 03:58:15;;;;;;;9.50;5.70;;;8.90;90.50;;;;;;5057737;28;20900;-73
2022/05/28 04:00:43;;;;;;;7.17;5.13;;;8.90;90.30;;;;;;5058563;28;20472;-73
2022/05/28 04:03:11;;;;;;;8.80;6.83;;;8.80;90.10;;;;;;5060547;28;20493;-73
2022/05/28 04:05:38;;;;;;;11.27;6.03;;;8.80;90.10;;;;;;5007975;28;20820;-73
2022/05/28 04:08:06;;;;;;;6.63;4.47;;;8.80;90.30;;;;;;5050354;28;20486;-73
2022/05/28 04:10:33;;;;;;;6.50;4.50;;;8.70;90.40;;;;;;5061770;28;20512;-72
2022/05/28 04:13:01;;;;;;;8.37;4.20;;;8.80;90.50;;;;;;5060375;28;20473;-72
2022/05/28 04:15:28;;;;;;;9.93;5.20;;;8.90;90.50;;;;;;5059603;28;20535;-72
2022/05/28 04:17:55;;;;;;;7.87;4.87;;;8.90;90.40;;;;;;5060997;28;20479;-73
2022/05/28 04:20:22;;;;;;;21.07;4.40;;;9.00;90.40;;;;;;5058415;28;20473;-72
2022/05/28 04:22:49;;;;;;;13.10;6.10;;;9.10;90.50;;;;;;5060433;28;21010;-72
2022/05/28 04:25:16;;;;;;;6.20;5.47;;;9.00;90.40;;;;;;5058794;28;20490;-72
2022/05/28 04:27:43;;;;;;;13.33;5.60;;;9.00;90.40;;;;;;5059105;28;20840;-73
2022/05/28 04:30:13;;;;;;;8.80;5.67;;;8.90;90.60;;;;;;5059194;28;20481;-73
2022/05/28 04:32:40;;;;;;;4.80;4.30;;;9.00;90.70;;;;;;5060265;28;20486;-73
2022/05/28 04:35:08;;;;;;;13.30;3.40;;;9.00;91.30;;;;;;5059951;28;20501;-72
2022/05/28 04:37:35;;;;;;;6.57;4.50;;;9.10;91.60;;;;;;5058047;28;20489;-73
2022/05/28 04:40:01;;;;;;;7.80;4.33;;;9.20;91.70;;;;;;5060375;28;20890;-73
2022/05/28 04:42:28;;;;;;;33.00;5.30;;;9.40;91.70;;;;;;5061732;28;20494;-72
2022/05/28 04:44:56;;;;;;;7.53;5.40;;;9.40;91.50;;;;;;5053155;28;20475;-73
2022/05/28 04:47:24;;;;;;;10.90;5.40;;;9.50;91.50;;;;;;5056688;28;20516;-72
2022/05/28 04:49:51;;;;;;;16.30;5.03;;;9.70;91.60;;;;;;5057919;28;20485;-73
2022/05/28 04:52:18;;;;;;;9.27;4.80;;;9.90;91.70;;;;;;5058213;28;20490;-72
2022/05/28 04:54:45;;;;;;;7.27;4.43;;;9.80;91.50;;;;;;5060179;28;20469;-72
2022/05/28 04:57:12;;;;;;;19.37;4.93;;;10.00;91.30;;;;;;5049075;28;20491;-72
2022/05/28 04:59:38;;;;;;;5.53;4.87;;;10.00;91.00;;;;;;5057558;28;20516;-72
2022/05/28 05:02:07;;;;;;;5.37;4.70;;;10.10;90.90;;;;;;5049678;28;21001;-72
2022/05/28 05:04:35;;;;;;;14.57;3.23;;;10.20;90.90;;;;;;5054655;28;20536;-72
2022/05/28 05:07:03;;;;;;;3.43;3.10;;;10.20;91.00;;;;;;5053017;28;20484;-72
2022/05/28 05:09:30;;;;;;;5.87;5.00;;;10.10;91.10;;;;;;5058495;28;20837;-73
2022/05/28 05:11:56;;;;;;;13.60;4.80;;;10.10;91.60;;;;;;5059474;28;20509;-72
2022/05/28 05:14:23;;;;;;;4.17;3.50;;;10.10;91.70;;;;;;5061551;28;20547;-72
2022/05/28 05:16:50;;;;;;;6.50;4.23;;;10.20;92.00;;;;;;5057378;28;20928;-73
2022/05/28 05:19:17;;;;;;;18.50;5.47;;;10.30;92.10;;;;;;5060742;28;20478;-73
2022/05/28 05:21:45;;;;;;;5.10;3.70;;;10.30;92.10;;;;;;5060229;28;21266;-73
2022/05/28 05:24:11;;;;;;;8.87;5.57;;;10.30;92.30;;;;;;5059347;28;20486;-73
2022/05/28 05:26:38;;;;;;;14.73;4.07;;;10.50;92.40;;;;;;5056594;28;20485;-72
2022/05/28 05:29:05;;;;;;;7.17;4.07;;;10.60;92.20;;;;;;5057476;28;20476;-74
2022/05/28 05:31:31;;;;;;;7.17;3.97;;;10.80;92.20;;;;;;5056614;28;20478;-70
2022/05/28 05:33:58;;;;;;;9.13;3.33;;;11.00;92.00;;;;;;5057269;28;20863;-73
2022/05/28 05:36:25;;;;;;;6.63;5.20;;;11.10;92.20;;;;;;5057453;28;21162;-73
2022/05/28 05:38:53;;;;;;;9.70;5.33;;;11.30;92.60;;;;;;5058414;28;20519;-74
2022/05/28 05:41:20;;;;;;;12.30;3.70;;;11.50;92.50;;;;;;5045559;28;21340;-72
2022/05/28 05:43:46;;;;;;;7.43;5.50;;;11.70;92.40;;;;;;5057891;28;20473;-73
2022/05/28 05:46:14;;;;;;;9.30;5.67;;;11.80;92.50;;;;;;5055944;28;20492;-72
2022/05/28 05:48:41;;;;;;;12.77;4.90;;;12.10;92.50;;;;;;5056663;28;20478;-72
2022/05/28 05:51:10;;;;;;;7.37;4.90;;;12.20;92.00;;;;;;5057014;28;20490;-73
2022/05/28 05:53:37;;;;;;;5.60;4.40;;;12.40;92.00;;;;;;5059265;28;20486;-73
2022/05/28 05:56:06;;;;;;;20.00;4.40;;;12.70;91.30;;;;;;5058481;28;20482;-72
2022/05/28 05:58:34;;;;;;;6.50;5.33;;;12.90;90.70;;;;;;5060855;28;21354;-73
2022/05/28 06:01:01;;;;;;;8.90;4.47;;;13.10;90.50;;;;;;5061345;28;20478;-75
2022/05/28 06:03:27;;;;;;;11.77;3.60;;;13.40;90.30;;;;;;5058133;28;20482;-75
2022/05/28 06:05:58;;;;;;;11.47;4.90;;;13.60;90.00;;;;;;5058358;28;20483;-73
2022/05/28 06:08:26;;;;;;;12.80;4.70;;;13.80;88.70;;;;;;5063752;28;20487;-74
2022/05/28 06:10:52;;;;;;;6.10;3.17;;;13.90;88.70;;;;;;5063460;28;20484;-73
2022/05/28 06:13:21;;;;;;;9.33;3.70;;;14.10;89.00;;;;;;5064086;28;20493;-74
2022/05/28 06:15:48;;;;;;;8.17;4.27;;;14.30;88.70;;;;;;5063003;28;20495;-75
2022/05/28 06:18:16;;;;;;;5.87;4.03;;;14.30;87.40;;;;;;5063115;28;20487;-72
2022/05/28 06:20:43;;;;;;;7.07;3.37;;;14.50;86.60;;;;;;5061577;28;20484;-74
2022/05/28 06:23:10;;;;;;;15.63;4.60;;;14.70;83.60;;;;;;5057086;28;20489;-73
2022/05/28 06:25:38;;;;;;;5.70;4.97;;;14.80;83.30;;;;;;5061535;28;20561;-75
2022/05/28 06:28:06;;;;;;;8.27;3.63;;;14.90;82.80;;;;;;5061984;28;20513;-72
2022/05/28 06:30:34;;;;;;;6.00;3.60;;;15.00;81.40;;;;;;5061948;28;20476;-74
2022/05/28 06:33:01;;;;;;;10.87;4.47;;;15.10;81.80;;;;;;5061497;28;20481;-73
2022/05/28 06:35:30;;;;;;;11.90;5.37;;;15.30;82.50;;;;;;5048929;28;20488;-74
2022/05/28 06:37:57;;;;;;;7.43;3.23;;;15.40;83.00;;;;;;5060070;28;20810;-73
2022/05/28 06:40:24;;;;;;;11.10;4.53;;;15.70;82.90;;;;;;5061766;28;20487;-74
2022/05/28 06:42:51;;;;;;;10.63;4.70;;;15.80;81.80;;;;;;5062244;28;20480;-74
2022/05/28 06:45:19;;;;;;;7.00;4.00;;;16.00;81.90;;;;;;5061819;28;20842;-74
2022/05/28 06:47:47;;;;;;;8.50;4.20;;;16.10;80.10;;;;;;5059903;28;20480;-73
2022/05/28 06:53:01;;;;;;;12.10;5.03;;;16.40;79.20;;;;;;5057020;28;20499;-74
2022/05/28 06:55:28;;;;;;;11.40;4.60;;;16.50;79.60;;;;;;5054582;28;20680;-75
2022/05/28 06:57:54;;;;;;;18.63;5.37;;;16.70;78.80;;;;;;5061502;28;20489;-75
2022/05/28 07:00:21;;;;;;;5.60;2.47;;;16.80;78.00;;;;;;5058889;28;20485;-75
2022/05/28 07:02:49;;;;;;;5.57;3.20;;;16.90;77.40;;;;;;5059940;28;20488;-76
2022/05/28 07:05:16;;;;;;;24.03;5.33;;;17.00;76.10;;;;;;5055655;28;20490;-76
2022/05/28 07:07:43;;;;;;;13.47;4.90;;;17.10;76.20;;;;;;5049083;28;20489;-75
2022/05/28 07:10:11;;;;;;;18.63;4.23;;;17.20;76.00;;;;;;5058084;28;20497;-74
2022/05/28 07:12:38;;;;;;;19.70;4.30;;;17.50;77.00;;;;;;5061040;28;20493;-75
2022/05/28 07:15:06;;;;;;;8.03;4.37;;;17.70;75.00;;;;;;5060191;28;20487;-77
2022/05/28 07:17:33;;;;;;;7.73;3.30;;;17.90;74.40;;;;;;5059473;28;20493;-75
2022/05/28 07:20:01;;;;;;;15.90;3.23;;;18.10;73.60;;;;;;5034054;28;20537;-75
2022/05/28 07:22:29;;;;;;;9.03;3.90;;;18.20;74.60;;;;;;5057320;28;20817;-77
2022/05/28 07:24:56;;;;;;;7.13;3.37;;;18.40;74.00;;;;;;5049215;28;20900;-75
2022/05/28 07:27:22;;;;;;;11.30;2.47;;;18.50;71.00;;;;;;5058022;28;20479;-74
2022/05/28 07:29:49;;;;;;;13.40;4.07;;;18.60;73.10;;;;;;5062715;28;20486;-76
2022/05/28 07:32:16;;;;;;;9.70;4.63;;;18.70;75.20;;;;;;5062109;28;20467;-77
2022/05/28 07:34:43;;;;;;;16.73;4.60;;;18.90;73.70;;;;;;5061307;28;20848;-75
2022/05/28 07:37:11;;;;;;;14.17;6.00;;;19.10;73.80;;;;;;5060544;28;20489;-75
2022/05/28 07:39:37;;;;;;;7.87;3.70;;;19.30;74.10;;;;;;5062630;28;20479;-75
2022/05/28 07:42:05;;;;;;;17.87;5.57;;;19.40;71.10;;;;;;5049127;28;20498;-75
2022/05/28 07:44:32;;;;;;;9.97;4.40;;;19.50;73.20;;;;;;5059801;28;20471;-75
2022/05/28 07:46:58;;;;;;;5.23;3.13;;;19.70;73.00;;;;;;5057043;28;20494;-75
2022/05/28 07:49:25;;;;;;;13.80;4.10;;;19.90;71.80;;;;;;5056437;28;20489;-75
2022/05/28 07:51:52;;;;;;;7.27;4.27;;;20.00;71.50;;;;;;5058750;28;20475;-75
2022/05/28 07:54:20;;;;;;;6.00;3.40;;;20.20;71.50;;;;;;5061590;28;20494;-75
2022/05/28 07:56:47;;;;;;;12.90;3.13;;;20.40;68.00;;;;;;5057079;28;20821;-76
2022/05/28 07:59:14;;;;;;;9.80;4.20;;;20.60;72.20;;;;;;5055471;28;20488;-76
2022/05/28 08:01:40;;;;;;;8.60;4.30;;;20.60;68.70;;;;;;5058627;28;20618;-75
2022/05/28 08:04:09;;;;;;;13.13;3.70;;;21.80;70.90;;;;;;5060134;28;20479;-77
2022/05/28 08:06:37;;;;;;;8.00;3.97;;;21.00;69.00;;;;;;5060904;28;20483;-74
2022/05/28 08:09:05;;;;;;;13.20;5.33;;;21.00;68.90;;;;;;5060634;28;20487;-76
2022/05/28 08:11:34;;;;;;;19.97;4.80;;;21.20;69.20;;;;;;5056797;28;20498;-75
2022/05/28 08:14:01;;;;;;;15.60;7.97;;;21.30;68.40;;;;;;5058934;28;20471;-74
2022/05/28 08:16:28;;;;;;;7.57;3.20;;;21.20;68.00;;;;;;5059240;28;20487;-74
2022/05/28 08:18:55;;;;;;;29.17;5.17;;;21.20;68.00;;;;;;5059644;28;20486;-74
2022/05/28 08:24:07;;;;;;;14.03;5.20;;;21.20;66.90;;;;;;5037102;28;20478;-74
2022/05/28 08:26:36;;;;;;;7.33;4.23;;;21.10;67.30;;;;;;5054024;28;20486;-75
2022/05/28 08:29:03;;;;;;;9.73;5.70;;;21.10;68.80;;;;;;5058895;28;20486;-75
2022/05/28 08:31:31;;;;;;;12.73;3.73;;;21.30;68.70;;;;;;5060304;28;20477;-75
2022/05/28 08:33:58;;;;;;;6.70;3.50;;;21.50;67.40;;;;;;5059101;28;20473;-73
2022/05/28 08:36:25;;;;;;;7.87;5.07;;;21.60;69.20;;;;;;5057792;28;20986;-76
2022/05/28 08:38:52;;;;;;;13.80;3.63;;;21.70;66.80;;;;;;5060600;28;20477;-75
2022/05/28 08:41:21;;;;;;;7.50;3.93;;;22.00;69.20;;;;;;5047267;28;20496;-74
2022/05/28 08:43:59;;;;;;;6.47;4.13;;;22.20;68.80;;;;;;5058776;28;20482;-74
2022/05/28 08:46:30;;;;;;;15.33;4.10;;;22.20;67.00;;;;;;5046908;28;20902;-75
2022/05/28 08:48:58;;;;;;;7.23;3.70;;;22.30;66.60;;;;;;5056737;28;20473;-75
2022/05/28 08:51:34;;;;;;;11.50;3.63;;;22.50;69.60;;;;;;5060385;28;20831;-74
2022/05/28 08:54:06;;;;;;;9.40;5.07;;;22.80;69.30;;;;;;5060005;28;20478;-74
2022/05/28 08:56:36;;;;;;;53.63;11.03;;;23.00;66.50;;;;;;5060032;28;20475;-74
2022/05/28 08:59:09;;;;;;;5.03;4.10;;;22.90;64.60;;;;;;5059449;28;20649;-75
2022/05/28 09:01:39;;;;;;;12.00;4.40;;;22.80;63.20;;;;;;5058752;28;20534;-74
2022/05/28 09:04:13;;;;;;;6.90;4.93;;;22.60;64.00;;;;;;5058312;28;20495;-75
2022/05/28 09:06:43;;;;;;;8.53;3.13;;;22.50;64.70;;;;;;5058085;28;20481;-75
2022/05/28 09:09:13;;;;;;;14.13;5.80;;;22.50;66.60;;;;;;5059357;28;20485;-76
2022/05/28 09:11:43;;;;;;;5.10;3.83;;;22.70;66.00;;;;;;5058341;28;20481;-74
2022/05/28 09:14:22;;;;;;;8.90;4.50;;;22.40;62.00;;;;;;5058295;28;20493;-71
2022/05/28 09:16:51;;;;;;;6.20;3.97;;;22.10;62.80;;;;;;5054438;28;20513;-74
2022/05/28 09:19:20;;;;;;;8.20;3.53;;;22.10;65.20;;;;;;5059850;28;20480;-77
2022/05/28 09:21:48;;;;;;;12.57;3.00;;;22.10;65.80;;;;;;5050258;28;20839;-77
2022/05/28 09:24:18;;;;;;;6.93;3.70;;;22.10;65.50;;;;;;5055120;28;21014;-76
2022/05/28 09:26:52;;;;;;;4.37;3.80;;;;;;;;;;5056319;28;20946;-75
2022/05/28 09:29:29;;;;;;;6.60;3.13;;;22.30;64.50;;;;;;5058854;28;20481;-76
2022/05/28 09:32:08;;;;;;;6.33;2.97;;;22.40;65.10;;;;;;5057434;28;21145;-76
2022/05/28 09:34:47;;;;;;;10.67;4.20;;;22.70;65.70;;;;;;5051417;28;20478;-76
2022/05/28 09:37:21;;;;;;;8.63;4.53;;;22.70;60.80;;;;;;5058025;28;20489;-74
2022/05/28 09:39:55;;;;;;;5.33;3.23;;;22.60;59.80;;;;;;5057686;28;20477;-74
2022/05/28 09:42:30;;;;;;;14.67;3.63;;;22.40;61.40;;;;;;5046195;28;20503;-75
2022/05/28 09:45:32;;;;;;;13.80;3.80;;;22.60;62.20;;;;;;5053844;28;20482;-76
2022/05/28 09:48:00;;;;;;;10.17;3.33;;;22.70;63.70;;;;;;5053193;28;20785;-74
2022/05/28 09:50:29;;;;;;;4.80;3.43;;;22.70;61.20;;;;;;5055374;28;20477;-74
2022/05/28 09:56:05;;;;;;;7.60;4.33;;;22.80;66.90;;;;;;5055199;28;20504;-73
2022/05/28 09:58:36;;;;;;;17.23;3.33;;;23.00;64.20;;;;;;5059851;28;20486;-75
2022/05/28 10:01:07;;;;;;;10.90;6.43;;;23.20;65.60;;;;;;5049108;28;20495;-72
2022/05/28 10:06:20;;;;;;;7.80;3.00;;;23.70;60.10;;;;;;5058211;28;20485;-75
2022/05/28 10:08:47;;;;;;;5.20;3.00;;;23.30;57.90;;;;;;5060140;28;20495;-75
2022/05/28 10:11:17;;;;;;;13.20;2.63;;;23.00;61.30;;;;;;5057968;28;21005;-74
2022/05/28 10:13:46;;;;;;;7.73;3.40;;;22.80;59.20;;;;;;5059660;28;20493;-75
2022/05/28 10:16:18;;;;;;;8.27;6.20;;;22.40;61.40;;;;;;5055651;28;20530;-77
2022/05/28 10:18:52;;;;;;;5.03;3.83;;;22.10;61.00;;;;;;5059784;28;20486;-75
2022/05/28 10:21:26;;;;;;;5.60;2.83;;;21.70;60.90;;;;;;5054666;28;20486;-76
2022/05/28 10:23:55;;;;;;;18.03;4.40;;;21.60;63.60;;;;;;5057781;28;20474;-75
2022/05/28 10:26:25;;;;;;;11.20;2.93;;;21.40;61.70;;;;;;5039300;28;20469;-77
2022/05/28 10:28:54;;;;;;;12.57;4.30;;;21.40;63.10;;;;;;5056702;28;20480;-74
2022/05/28 10:31:29;;;;;;;5.53;2.50;;;21.70;65.70;;;;;;5057882;28;20709;-74
2022/05/28 10:33:56;;;;;;;12.00;4.10;;;21.90;65.40;;;;;;5044296;28;20481;-76
2022/05/28 10:36:26;;;;;;;10.73;3.53;;;22.40;64.20;;;;;;5056320;28;20505;-76
2022/05/28 10:38:52;;;;;;;8.40;4.00;;;22.30;60.40;;;;;;5059121;28;20475;-74
2022/05/28 10:41:22;;;;;;;5.13;2.90;;;22.40;61.80;;;;;;5058194;28;20478;-75
2022/05/28 10:43:50;;;;;;;11.63;2.63;;;22.30;59.20;;;;;;5059367;28;20492;-74
2022/05/28 10:46:27;;;;;;;10.00;3.43;;;21.80;57.50;;;;;;5061507;28;20486;-75
2022/05/28 10:49:11;;;;;;;7.27;3.17;;;22.10;62.70;;;;;;5058460;28;20475;-74
2022/05/28 10:51:56;;;;;;;10.43;3.67;;;22.20;63.70;;;;;;5062352;28;20481;-72
2022/05/28 10:54:40;;;;;;;2.97;2.63;;;22.10;61.20;;;;;;5049666;28;21029;-73
2022/05/28 10:57:31;;;;;;;8.23;6.23;;;21.60;59.80;;;;;;5059498;28;22055;-73
2022/05/28 11:00:08;;;;;;;5.70;3.57;;;21.50;63.40;;;;;;5048173;28;20478;-73
2022/05/28 11:03:10;;;;;;;31.60;3.63;;;21.50;63.20;;;;;;5061182;28;20497;-74
2022/05/28 11:06:02;;;;;;;13.63;5.20;;;21.70;65.20;;;;;;4990701;28;20841;-72
2022/05/28 11:08:41;;;;;;;4.87;3.33;;;22.00;66.30;;;;;;5036915;28;20493;-74
2022/05/28 11:11:27;;;;;;;16.63;5.47;;;22.40;63.80;;;;;;5052109;28;20580;-74
2022/05/28 11:14:21;;;;;;;3.97;2.70;;;22.50;57.60;;;;;;5055164;28;20795;-74
2022/05/28 11:17:01;;;;;;;5.13;3.07;;;22.60;59.10;;;;;;5042737;28;20477;-74
2022/05/28 11:19:43;;;;;;;8.53;2.73;;;22.90;63.00;;;;;;5051288;28;20473;-74
2022/05/28 11:22:36;;;;;;;6.13;4.10;;;23.00;60.20;;;;;;5060158;28;20490;-74
2022/05/28 11:25:10;;;;;;;9.13;5.00;;;23.10;60.60;;;;;;5054435;28;20481;-74
2022/05/28 11:27:46;;;;;;;3.10;2.37;;;23.40;60.00;;;;;;5056784;28;20481;-71
2022/05/28 11:30:17;;;;;;;8.40;5.43;;;23.50;58.70;;;;;;5059466;28;20479;-73
2022/05/28 11:32:48;;;;;;;7.00;3.87;;;23.50;57.00;;;;;;5048157;28;20497;-76
2022/05/28 11:35:30;;;;;;;15.23;4.00;;;23.70;58.20;;;;;;5058447;28;20510;-77
2022/05/28 11:38:02;;;;;;;5.50;3.33;;;23.60;56.60;;;;;;5058766;28;20871;-77
2022/05/28 11:40:35;;;;;;;17.83;3.00;;;23.10;57.50;;;;;;5061022;28;20846;-76
2022/05/28 11:43:09;;;;;;;15.03;5.57;;;23.00;58.00;;;;;;5058943;28;20474;-76
2022/05/28 11:45:43;;;;;;;8.70;4.87;;;22.50;58.10;;;;;;5058163;28;21057;-74
2022/05/28 11:48:14;;;;;;;13.33;6.93;;;22.40;59.40;;;;;;5058902;28;20498;-75
2022/05/28 11:53:37;;;;;;;4.93;3.70;;;22.20;57.80;;;;;;5050667;28;20497;-73
2022/05/28 11:56:11;;;;;;;34.03;6.10;;;22.10;59.20;;;;;;5048743;28;20471;-76
2022/05/28 11:58:44;;;;;;;8.00;4.40;;;22.30;62.90;;;;;;5050625;28;20470;-74
2022/05/28 12:01:13;;;;;;;10.00;6.90;;;;;;;;;;5040923;28;20517;-76
2022/05/28 12:03:44;;;;;;;6.97;4.40;;;23.00;60.70;;;;;;5037359;28;20471;-75
2022/05/28 12:06:27;;;;;;;11.43;8.40;;;23.20;59.40;;;;;;5039799;28;20493;-73
2022/05/28 12:09:06;;;;;;;5.57;4.07;;;23.20;57.60;;;;;;5035851;28;20474;-73
2022/05/28 12:11:39;;;;;;;7.80;4.37;;;23.50;62.40;;;;;;5043410;28;20475;-73
2022/05/28 12:14:08;;;;;;;16.40;6.40;;;23.60;57.90;;;;;;5031811;28;20475;-76
2022/05/28 12:16:38;;;;;;;6.60;4.70;;;23.50;57.40;;;;;;5035449;28;20639;-75
2022/05/28 12:19:21;;;;;;;7.60;6.43;;;23.60;57.40;;;;;;5038156;28;21057;-75
2022/05/28 12:21:49;;;;;;;6.40;4.50;;;23.60;59.60;;;;;;5037783;28;21046;-74
2022/05/28 12:24:27;;;;;;;7.60;4.53;;;23.90;57.80;;;;;;5036447;28;20505;-75
2022/05/28 12:27:13;;;;;;;5.30;4.00;;;23.90;58.00;;;;;;5045785;28;20489;-73
2022/05/28 12:29:55;;;;;;;19.93;4.37;;;24.00;58.20;;;;;;5044937;28;21071;-74
2022/05/28 12:32:23;;;;;;;5.30;3.37;;;24.00;57.90;;;;;;5049220;28;20485;-74
2022/05/28 12:34:55;;;;;;;4.53;4.13;;;24.00;57.30;;;;;;5038040;28;21029;-75
2022/05/28 12:37:27;;;;;;;5.73;3.13;;;23.80;53.90;;;;;;5038705;28;20481;-75
2022/05/28 12:40:08;;;;;;;5.20;3.73;;;23.70;58.00;;;;;;5050815;28;21014;-74
2022/05/28 12:42:35;;;;;;;4.10;3.70;;;23.40;57.10;;;;;;5045644;28;20875;-74
2022/05/28 12:45:14;;;;;;;5.93;5.37;;;24.10;59.40;;;;;;5035187;28;20481;-74
2022/05/28 12:47:41;;;;;;;22.03;3.03;;;25.20;59.10;;;;;;5039373;28;20483;-75
2022/05/28 12:50:21;;;;;;;11.37;6.43;;;23.90;56.80;;;;;;5031949;28;20502;-77
2022/05/28 12:52:56;;;;;;;3.93;3.20;;;23.60;53.70;;;;;;5041444;28;20976;-76
2022/05/28 12:55:35;;;;;;;4.40;2.97;;;23.70;59.10;;;;;;5039587;28;20483;-75
2022/05/28 12:58:06;;;;;;;5.23;4.33;;;23.60;58.20;;;;;;5034770;28;20515;-76
2022/05/28 13:00:46;;;;;;;4.70;3.50;;;23.40;56.60;;;;;;5039881;28;21015;-75
2022/05/28 13:03:16;;;;;;;19.17;5.83;;;23.20;57.30;;;;;;5031190;28;20477;-75
2022/05/28 13:05:48;;;;;;;5.60;5.00;;;23.00;57.20;;;;;;5045701;28;20925;-77
2022/05/28 13:08:22;;;;;;;5.33;4.30;;;22.80;58.30;;;;;;5042867;28;20456;-75
2022/05/28 13:10:52;;;;;;;11.33;4.23;;;22.80;57.20;;;;;;5037805;28;20745;-75
2022/05/28 13:13:51;;;;;;;4.23;3.20;;;22.80;55.90;;;;;;5033607;28;20485;-77